createdAt,value
2022-11-04T00:01:44.500Z,18.50
2022-11-04T00:04:12.946Z,30.60
2022-11-04T00:06:40.215Z,40.80
2022-11-04T00:09:10.239Z,42.90
2022-11-04T00:11:55.965Z,48.10
2022-11-04T00:14:23.209Z,35.30
2022-11-04T00:17:08.777Z,24.40
2022-11-04T00:19:54.177Z,21.80
2022-11-04T00:22:40.363Z,16.70
2022-11-04T00:25:27.335Z,15.70
2022-11-04T00:28:20.796Z,16.60
2022-11-04T00:30:47.769Z,16.70
2022-11-04T00:33:26.745Z,16.00
2022-11-04T00:35:56.714Z,14.70
2022-11-04T00:38:25.184Z,16.20
2022-11-04T00:40:52.087Z,14.90
2022-11-04T00:43:19.056Z,14.10
2022-11-04T00:45:45.936Z,14.80
2022-11-04T00:48:13.069Z,14.70
2022-11-04T00:50:40.060Z,19.40
2022-11-04T00:53:07.199Z,15.40
2022-11-04T00:55:34.627Z,14.60
2022-11-04T00:58:01.700Z,16.00
2022-11-04T01:00:28.846Z,14.70
2022-11-04T01:02:56.313Z,16.40
2022-11-04T01:05:23.218Z,16.30
2022-11-04T01:07:50.074Z,16.90
2022-11-04T01:10:16.944Z,16.70
2022-11-04T01:12:43.808Z,16.80
2022-11-04T01:15:10.753Z,16.20
2022-11-04T01:17:37.610Z,14.90
2022-11-04T01:20:05.013Z,16.70
2022-11-04T01:22:31.890Z,16.00
2022-11-04T01:24:58.709Z,16.70
2022-11-04T01:27:25.545Z,16.90
2022-11-04T01:29:52.962Z,16.60
2022-11-04T01:32:19.769Z,16.70
2022-11-04T01:34:46.672Z,17.80
2022-11-04T01:37:13.689Z,14.40
2022-11-04T01:39:40.642Z,17.40
2022-11-04T01:42:12.906Z,16.50
2022-11-04T01:44:48.165Z,15.50
2022-11-04T01:47:39.825Z,16.90
2022-11-04T01:50:09.895Z,17.70
2022-11-04T01:52:48.911Z,15.30
2022-11-04T01:55:25.662Z,19.30
2022-11-04T01:57:56.943Z,17.70
2022-11-04T02:00:24.411Z,15.30
2022-11-04T02:03:09.373Z,15.50
2022-11-04T02:05:36.584Z,16.60
2022-11-04T02:08:06.409Z,16.20
2022-11-04T02:10:33.467Z,17.50
2022-11-04T02:13:03.334Z,20.00
2022-11-04T02:15:36.022Z,16.80
2022-11-04T02:18:13.697Z,17.60
2022-11-04T02:21:14.961Z,16.60
2022-11-04T02:24:00.062Z,17.10
2022-11-04T02:26:26.843Z,16.00
2022-11-04T02:29:23.008Z,19.00
2022-11-04T02:31:49.858Z,19.30
2022-11-04T02:34:44.592Z,15.70
2022-11-04T02:37:38.311Z,16.40
2022-11-04T02:40:15.532Z,17.10
2022-11-04T02:42:56.070Z,16.60
2022-11-04T02:45:35.062Z,16.70
2022-11-04T02:48:30.841Z,17.40
2022-11-04T02:51:17.725Z,15.50
2022-11-04T02:53:50.917Z,17.80
2022-11-04T02:56:20.937Z,13.20
2022-11-04T03:01:29.990Z,18.30
2022-11-04T03:04:03.577Z,16.60
2022-11-04T03:06:32.169Z,14.00
2022-11-04T03:09:01.177Z,17.50
2022-11-04T03:11:29.032Z,13.20
2022-11-04T03:14:01.976Z,15.10
2022-11-04T03:16:42.531Z,16.80
2022-11-04T03:19:38.607Z,16.10
2022-11-04T03:22:17.102Z,17.90
2022-11-04T03:24:47.139Z,13.70
2022-11-04T03:27:24.588Z,14.90
2022-11-04T03:29:51.774Z,17.30
2022-11-04T03:32:32.032Z,15.90
2022-11-04T03:34:59.235Z,17.60
2022-11-04T03:37:26.228Z,17.60
2022-11-04T03:39:53.332Z,16.30
2022-11-04T03:42:21.948Z,18.70
2022-11-04T03:44:51.510Z,16.20
2022-11-04T03:47:20.426Z,17.30
2022-11-04T03:49:48.427Z,15.90
2022-11-04T03:52:17.331Z,18.90
2022-11-04T03:54:45.220Z,16.30
2022-11-04T03:57:12.067Z,19.50
2022-11-04T04:00:06.613Z,17.20
2022-11-04T04:03:04.562Z,18.90
2022-11-04T04:05:40.161Z,19.20
2022-11-04T04:08:51.221Z,16.70
2022-11-04T04:11:36.295Z,16.30
2022-11-04T04:14:33.422Z,17.10
2022-11-04T04:17:05.559Z,16.70
2022-11-04T04:19:33.519Z,18.10
2022-11-04T04:22:06.178Z,17.10
2022-11-04T04:24:56.050Z,16.40
2022-11-04T04:27:32.316Z,16.80
2022-11-04T04:30:12.132Z,18.10
2022-11-04T04:32:46.040Z,15.80
2022-11-04T04:35:32.639Z,19.10
2022-11-04T04:38:25.176Z,16.50
2022-11-04T04:41:21.668Z,19.00
2022-11-04T04:44:07.662Z,17.10
2022-11-04T04:46:36.065Z,16.90
2022-11-04T04:49:09.456Z,17.90
2022-11-04T04:51:41.512Z,17.30
2022-11-04T04:54:08.425Z,18.10
2022-11-04T04:56:35.356Z,17.50
2022-11-04T04:59:02.647Z,15.70
2022-11-04T05:01:29.611Z,15.40
2022-11-04T05:03:56.568Z,18.60
2022-11-04T05:06:23.582Z,16.40
2022-11-04T05:08:50.601Z,17.40
2022-11-04T05:11:18.869Z,17.90
2022-11-04T05:13:48.464Z,21.40
2022-11-04T05:16:15.454Z,20.30
2022-11-04T05:18:42.380Z,19.90
2022-11-04T05:21:14.006Z,19.40
2022-11-04T05:23:41.077Z,20.70
2022-11-04T05:26:08.435Z,19.90
2022-11-04T05:28:35.651Z,19.40
2022-11-04T05:31:05.488Z,20.10
2022-11-04T05:33:32.687Z,24.10
2022-11-04T05:36:11.103Z,20.50
2022-11-04T05:38:38.853Z,22.20
2022-11-04T05:41:07.362Z,22.20
2022-11-04T05:43:34.347Z,23.50
2022-11-04T05:46:01.508Z,24.40
2022-11-04T05:48:28.490Z,19.20
2022-11-04T05:50:55.527Z,22.70
2022-11-04T05:53:22.496Z,19.50
2022-11-04T05:55:49.560Z,19.10
2022-11-04T05:58:16.471Z,19.50
2022-11-04T06:00:43.548Z,20.50
2022-11-04T06:03:13.590Z,21.10
2022-11-04T06:05:43.160Z,20.60
2022-11-04T06:08:10.397Z,16.30
2022-11-04T06:10:37.680Z,17.90
2022-11-04T06:13:04.614Z,21.40
2022-11-04T06:15:31.640Z,15.70
2022-11-04T06:17:58.593Z,17.80
2022-11-04T06:20:25.963Z,20.40
2022-11-04T06:22:53.025Z,15.30
2022-11-04T06:25:19.890Z,17.70
2022-11-04T06:27:47.093Z,18.90
2022-11-04T06:30:14.072Z,17.90
2022-11-04T06:32:41.004Z,17.60
2022-11-04T06:35:08.877Z,18.90
2022-11-04T06:37:37.294Z,18.80
2022-11-04T06:40:04.764Z,20.20
2022-11-04T06:42:31.970Z,18.50
2022-11-04T06:44:58.915Z,16.40
2022-11-04T06:47:25.746Z,18.10
2022-11-04T06:49:52.743Z,21.50
2022-11-04T06:52:19.738Z,21.80
2022-11-04T06:54:47.465Z,19.60
2022-11-04T06:57:14.442Z,17.90
2022-11-04T06:59:41.394Z,19.00
2022-11-04T07:02:10.882Z,18.90
2022-11-04T07:04:37.974Z,19.00
2022-11-04T07:07:04.923Z,18.60
2022-11-04T07:09:31.898Z,19.50
2022-11-04T07:11:59.354Z,18.40
2022-11-04T07:14:26.887Z,19.90
2022-11-04T07:16:53.902Z,20.00
2022-11-04T07:19:20.779Z,18.70
2022-11-04T07:21:47.812Z,19.00
2022-11-04T07:24:14.639Z,18.00
2022-11-04T07:26:42.062Z,19.50
2022-11-04T07:29:10.660Z,20.10
2022-11-04T07:31:38.224Z,20.10
2022-11-04T07:34:05.538Z,18.70
2022-11-04T07:36:32.500Z,20.10
2022-11-04T07:39:00.412Z,18.60
2022-11-04T07:41:28.971Z,17.00
2022-11-04T07:43:55.981Z,17.70
2022-11-04T07:46:22.890Z,20.50
2022-11-04T07:48:50.479Z,20.80
2022-11-04T07:51:20.049Z,22.90
2022-11-04T07:53:46.997Z,22.70
2022-11-04T07:56:14.763Z,17.70
2022-11-04T07:58:42.330Z,17.90
2022-11-04T08:01:13.557Z,17.30
2022-11-04T08:03:40.744Z,19.30
2022-11-04T08:06:09.940Z,22.50
2022-11-04T08:08:37.029Z,19.60
2022-11-04T08:11:11.448Z,19.70
2022-11-04T08:13:41.619Z,19.20
2022-11-04T08:16:14.500Z,21.20
2022-11-04T08:18:42.666Z,20.40
2022-11-04T08:21:10.218Z,20.60
2022-11-04T08:23:38.137Z,17.60
2022-11-04T08:26:12.654Z,21.80
2022-11-04T08:28:40.003Z,18.60
2022-11-04T08:31:14.729Z,17.70
2022-11-04T08:33:42.670Z,17.80
2022-11-04T08:36:14.321Z,19.50
2022-11-04T08:38:41.312Z,20.70
2022-11-04T08:41:09.508Z,22.60
2022-11-04T08:43:36.810Z,21.00
2022-11-04T08:46:06.537Z,16.10
2022-11-04T08:48:35.101Z,18.20
2022-11-04T08:51:03.133Z,18.80
2022-11-04T08:53:30.096Z,19.00
2022-11-04T08:55:57.136Z,16.60
2022-11-04T08:58:24.714Z,20.40
2022-11-04T09:00:51.865Z,17.50
2022-11-04T09:03:19.059Z,19.80
2022-11-04T09:05:48.481Z,18.70
2022-11-04T09:08:17.080Z,18.40
2022-11-04T09:10:46.474Z,20.10
2022-11-04T09:13:15.340Z,21.40
2022-11-04T09:15:42.856Z,19.10
2022-11-04T09:18:10.023Z,20.20
2022-11-04T09:20:41.601Z,25.30
2022-11-04T09:23:09.328Z,21.40
2022-11-04T09:25:36.896Z,19.80
2022-11-04T09:28:04.502Z,17.40
2022-11-04T09:30:32.070Z,20.10
2022-11-04T09:32:59.301Z,21.70
2022-11-04T09:35:27.153Z,20.00
2022-11-04T09:37:54.462Z,21.00
2022-11-04T09:40:24.430Z,19.80
2022-11-04T09:43:11.526Z,21.00
2022-11-04T09:45:40.911Z,19.40
2022-11-04T09:48:19.053Z,28.00
2022-11-04T09:50:52.647Z,22.20
2022-11-04T09:53:25.872Z,19.60
2022-11-04T09:55:58.560Z,20.70
2022-11-04T09:58:27.711Z,18.20
2022-11-04T10:01:06.035Z,19.60
2022-11-04T10:03:52.283Z,19.40
2022-11-04T10:06:52.412Z,19.60
2022-11-04T10:09:50.427Z,18.80
2022-11-04T10:12:35.758Z,21.70
2022-11-04T10:15:39.551Z,20.00
2022-11-04T10:18:20.738Z,20.00
2022-11-04T10:21:08.520Z,20.00
2022-11-04T10:24:04.882Z,18.40
2022-11-04T10:27:03.678Z,19.90
2022-11-04T10:29:37.750Z,19.10
2022-11-04T10:32:18.117Z,17.90
2022-11-04T10:35:01.762Z,19.70
2022-11-04T10:37:28.872Z,19.10
2022-11-04T10:40:17.584Z,20.40
2022-11-04T10:42:44.620Z,18.40
2022-11-04T10:45:13.416Z,16.70
2022-11-04T10:47:51.592Z,17.00
2022-11-04T10:50:31.225Z,21.00
2022-11-04T10:53:11.633Z,22.30
2022-11-04T10:55:51.835Z,22.90
2022-11-04T10:58:25.268Z,21.70
2022-11-04T11:00:53.959Z,19.50
2022-11-04T11:03:24.107Z,18.60
2022-11-04T11:05:52.784Z,18.70
2022-11-04T11:08:36.705Z,18.20
2022-11-04T11:11:05.993Z,20.00
2022-11-04T11:13:44.854Z,19.50
2022-11-04T11:16:19.894Z,20.40
2022-11-04T11:19:09.447Z,19.90
2022-11-04T11:21:57.354Z,17.90
2022-11-04T11:24:26.626Z,18.70
2022-11-04T11:26:59.373Z,20.30
2022-11-04T11:29:27.950Z,18.20
2022-11-04T11:31:56.997Z,18.70
2022-11-04T11:34:27.986Z,20.20
2022-11-04T11:36:56.275Z,18.20
2022-11-04T11:39:27.531Z,18.60
2022-11-04T11:42:05.736Z,19.70
2022-11-04T11:44:44.469Z,17.20
2022-11-04T11:47:36.316Z,17.10
2022-11-04T11:50:25.553Z,20.30
2022-11-04T11:52:52.613Z,19.70
2022-11-04T11:55:36.199Z,17.70
2022-11-04T12:01:26.667Z,17.10
2022-11-04T12:10:24.171Z,18.20
2022-11-04T12:13:24.683Z,20.70
2022-11-04T12:16:18.660Z,21.80
2022-11-04T12:19:05.764Z,16.80
2022-11-04T12:21:40.101Z,18.50
2022-11-04T12:24:44.460Z,19.10
2022-11-04T12:27:13.962Z,17.90
2022-11-04T12:29:52.727Z,16.90
2022-11-04T12:32:46.614Z,20.40
2022-11-04T12:35:35.263Z,21.30
2022-11-04T12:38:03.365Z,17.10
2022-11-04T12:41:18.095Z,19.10
2022-11-04T12:43:50.900Z,19.40
2022-11-04T12:46:47.268Z,23.10
2022-11-04T12:49:29.300Z,21.20
2022-11-04T12:52:14.433Z,25.10
2022-11-04T12:54:59.386Z,32.30
2022-11-04T12:57:48.159Z,45.30
2022-11-04T13:00:24.348Z,38.90
2022-11-04T13:03:01.688Z,26.00
2022-11-04T13:06:12.325Z,22.40
2022-11-04T13:08:49.237Z,19.70
2022-11-04T13:11:25.444Z,20.70
2022-11-04T13:14:07.673Z,21.30
2022-11-04T13:16:41.236Z,19.50
2022-11-04T13:19:23.350Z,23.10
2022-11-04T13:21:51.567Z,21.60
2022-11-04T13:24:24.368Z,22.00
2022-11-04T13:26:51.945Z,20.90
2022-11-04T13:29:21.203Z,19.80
2022-11-04T13:32:20.545Z,19.30
2022-11-04T13:34:56.947Z,19.30
2022-11-04T13:37:30.676Z,17.70
2022-11-04T13:40:19.327Z,22.50
2022-11-04T13:42:47.179Z,21.90
2022-11-04T13:45:16.600Z,22.70
2022-11-04T13:47:52.881Z,36.20
2022-11-04T13:50:28.771Z,33.10
2022-11-04T13:52:55.769Z,31.30
2022-11-04T13:55:22.765Z,31.10
2022-11-04T13:58:01.353Z,35.00
2022-11-04T14:00:33.248Z,32.00
2022-11-04T14:03:21.035Z,33.30
2022-11-04T14:06:00.062Z,27.80
2022-11-04T14:08:27.640Z,25.40
2022-11-04T14:10:54.527Z,25.40
2022-11-04T14:13:30.824Z,25.60
2022-11-04T14:16:04.741Z,18.10
2022-11-04T14:18:34.324Z,19.70
2022-11-04T14:21:06.700Z,18.50
2022-11-04T14:23:35.386Z,18.50
2022-11-04T14:26:11.471Z,19.30
2022-11-04T14:28:44.809Z,18.70
2022-11-04T14:31:17.755Z,20.60
2022-11-04T14:33:57.958Z,19.70
2022-11-04T14:36:35.160Z,17.30
2022-11-04T14:39:11.525Z,17.30
2022-11-04T14:42:02.717Z,17.20
2022-11-04T14:44:41.715Z,19.40
2022-11-04T14:47:19.742Z,17.10
2022-11-04T14:49:49.156Z,19.40
2022-11-04T14:52:32.840Z,20.30
2022-11-04T14:55:05.244Z,32.90
2022-11-04T14:57:42.838Z,21.80
2022-11-04T15:00:33.772Z,22.70
2022-11-04T15:06:40.221Z,23.10
2022-11-04T15:09:34.057Z,21.90
2022-11-04T15:12:29.603Z,20.60
2022-11-04T15:14:57.847Z,21.30
2022-11-04T15:17:28.389Z,19.50
2022-11-04T15:19:59.063Z,18.10
2022-11-04T15:22:27.886Z,19.40
2022-11-04T15:24:56.382Z,20.80
2022-11-04T15:27:28.697Z,18.70
2022-11-04T15:29:57.890Z,18.90
2022-11-04T15:32:26.041Z,20.40
2022-11-04T15:34:54.666Z,21.90
2022-11-04T15:37:23.618Z,18.80
2022-11-04T15:39:54.608Z,19.90
2022-11-04T15:42:39.598Z,17.30
2022-11-04T15:45:21.841Z,20.80
2022-11-04T15:47:49.355Z,19.40
2022-11-04T15:50:24.390Z,18.50
2022-11-04T15:52:54.519Z,18.50
2022-11-04T15:55:25.324Z,18.90
2022-11-04T15:57:55.132Z,20.50
2022-11-04T16:00:27.841Z,33.70
2022-11-04T16:02:57.037Z,21.30
2022-11-04T16:05:24.048Z,20.60
2022-11-04T16:07:52.896Z,18.90
2022-11-04T16:10:40.146Z,19.40
2022-11-04T16:13:16.505Z,18.50
2022-11-04T16:15:48.532Z,20.20
2022-11-04T16:18:39.674Z,18.30
2022-11-04T16:21:34.782Z,16.90
2022-11-04T16:24:19.644Z,20.80
2022-11-04T16:26:47.615Z,19.30
2022-11-04T16:29:21.728Z,21.40
2022-11-04T16:32:08.860Z,23.60
2022-11-04T16:34:35.898Z,19.80
2022-11-04T16:37:02.944Z,20.90
2022-11-04T16:39:31.750Z,18.60
2022-11-04T16:41:59.076Z,23.00
2022-11-04T16:44:26.853Z,26.70
2022-11-04T16:46:54.104Z,59.20
2022-11-04T16:49:21.960Z,77.20
2022-11-04T16:52:12.630Z,62.30
2022-11-04T16:54:39.698Z,65.10
2022-11-04T16:57:11.187Z,64.10
2022-11-04T16:59:38.195Z,74.70
2022-11-04T17:02:20.551Z,80.80
2022-11-04T17:04:47.731Z,71.60
2022-11-04T17:07:14.724Z,70.10
2022-11-04T17:09:41.612Z,58.70
2022-11-04T17:12:09.417Z,52.50
2022-11-04T17:14:36.410Z,52.80
2022-11-04T17:17:04.063Z,52.80
2022-11-04T17:19:34.748Z,47.60
2022-11-04T17:22:05.367Z,41.00
2022-11-04T17:24:32.519Z,36.50
2022-11-04T17:26:59.522Z,33.60
2022-11-04T17:29:26.678Z,32.70
2022-11-04T17:31:53.723Z,31.70
2022-11-04T17:34:25.095Z,28.50
2022-11-04T17:36:53.201Z,24.20
2022-11-04T17:39:20.241Z,28.00
2022-11-04T17:42:05.899Z,27.90
2022-11-04T17:44:32.863Z,31.90
2022-11-04T17:47:00.346Z,34.10
2022-11-04T17:49:28.237Z,29.60
2022-11-04T17:51:59.424Z,25.10
2022-11-04T17:54:30.422Z,27.10
2022-11-04T17:56:57.540Z,23.50
2022-11-04T17:59:24.547Z,24.60
2022-11-04T18:01:51.767Z,23.00
2022-11-04T18:04:21.675Z,24.80
2022-11-04T18:06:49.823Z,21.00
2022-11-04T18:09:17.797Z,22.60
2022-11-04T18:12:03.678Z,21.80
2022-11-04T18:14:31.364Z,74.80
2022-11-04T18:16:58.536Z,66.10
2022-11-04T18:19:26.150Z,90.60
2022-11-04T18:21:53.422Z,108.30
2022-11-04T18:24:20.666Z,137.90
2022-11-04T18:26:47.643Z,69.50
2022-11-04T18:29:15.815Z,55.90
2022-11-04T18:31:48.726Z,63.60
2022-11-04T18:34:18.872Z,60.40
2022-11-04T18:39:15.836Z,49.50
2022-11-04T18:41:43.323Z,47.30
2022-11-04T18:44:19.640Z,43.10
2022-11-04T18:46:47.790Z,37.10
2022-11-04T18:49:16.326Z,40.50
2022-11-04T18:51:43.882Z,41.60
2022-11-04T18:54:11.519Z,39.70
2022-11-04T18:56:39.010Z,36.60
2022-11-04T18:59:09.668Z,29.80
2022-11-04T19:01:37.371Z,26.90
2022-11-04T19:04:05.137Z,24.60
2022-11-04T19:06:35.146Z,25.00
2022-11-04T19:09:25.224Z,23.80
2022-11-04T19:12:12.389Z,22.50
2022-11-04T19:14:39.843Z,22.10
2022-11-04T19:17:07.053Z,20.90
2022-11-04T19:19:33.892Z,19.70
2022-11-04T19:22:00.882Z,21.00
2022-11-04T19:24:28.105Z,22.20
2022-11-04T19:26:54.948Z,21.30
2022-11-04T19:29:22.192Z,19.90
2022-11-04T19:31:49.202Z,20.90
2022-11-04T19:34:16.120Z,20.10
2022-11-04T19:36:43.314Z,19.00
2022-11-04T19:39:10.445Z,22.20
2022-11-04T19:41:56.285Z,19.80
2022-11-04T19:44:23.602Z,18.00
2022-11-04T19:46:50.522Z,20.00
2022-11-04T19:49:18.080Z,18.70
2022-11-04T19:51:45.330Z,20.30
2022-11-04T19:54:12.468Z,23.60
2022-11-04T19:56:39.651Z,21.30
2022-11-04T19:59:08.530Z,32.40
2022-11-04T20:01:35.700Z,20.50
2022-11-04T20:04:04.201Z,21.50
2022-11-04T20:06:32.567Z,21.20
2022-11-04T20:09:05.350Z,21.70
2022-11-04T20:11:34.438Z,20.10
2022-11-04T20:14:07.516Z,19.10
2022-11-04T20:16:38.812Z,18.70
2022-11-04T20:19:05.951Z,29.90
2022-11-04T20:21:35.328Z,28.00
2022-11-04T20:24:06.535Z,26.60
2022-11-04T20:26:35.722Z,23.60
2022-11-04T20:29:04.566Z,25.20
2022-11-04T20:31:34.593Z,24.30
2022-11-04T20:34:04.501Z,24.10
2022-11-04T20:36:31.645Z,23.30
2022-11-04T20:39:00.908Z,23.60
2022-11-04T20:41:28.467Z,22.90
2022-11-04T20:43:55.480Z,22.10
2022-11-04T20:46:25.072Z,22.50
2022-11-04T20:48:52.634Z,23.00
2022-11-04T20:51:22.874Z,24.80
2022-11-04T20:53:55.541Z,20.90
2022-11-04T20:56:24.867Z,22.40
2022-11-04T20:58:58.847Z,27.00
2022-11-04T21:01:32.266Z,22.70
2022-11-04T21:04:00.768Z,21.40
2022-11-04T21:06:28.664Z,22.00
2022-11-04T21:08:59.011Z,24.30
2022-11-04T21:11:31.855Z,43.90
2022-11-04T21:13:59.424Z,46.20
2022-11-04T21:16:26.729Z,43.00
2022-11-04T21:18:54.144Z,40.10
2022-11-04T21:21:21.146Z,29.20
2022-11-04T21:23:48.241Z,25.80
2022-11-04T21:26:20.419Z,23.40
2022-11-04T21:28:48.751Z,21.20
2022-11-04T21:31:15.726Z,23.90
2022-11-04T21:33:43.017Z,22.10
2022-11-04T21:36:11.651Z,21.90
2022-11-04T21:38:39.826Z,20.50
2022-11-04T21:41:12.718Z,22.50
2022-11-04T21:43:40.188Z,20.20
2022-11-04T21:46:11.804Z,22.80
2022-11-04T21:48:39.476Z,20.00
2022-11-04T21:51:15.350Z,19.90
2022-11-04T21:53:42.464Z,21.40
2022-11-04T21:56:19.007Z,22.00
2022-11-04T21:58:46.535Z,20.10
2022-11-04T22:01:16.922Z,20.60
2022-11-04T22:03:48.574Z,21.30
2022-11-04T22:06:15.884Z,19.90
2022-11-04T22:08:44.710Z,22.60
2022-11-04T22:11:17.331Z,20.60
2022-11-04T22:13:49.528Z,19.50
2022-11-04T22:16:19.982Z,21.20
2022-11-04T22:18:47.160Z,21.80
2022-11-04T22:21:17.127Z,20.60
2022-11-04T22:23:45.165Z,19.00
2022-11-04T22:26:16.351Z,20.90
2022-11-04T22:28:43.509Z,19.70
2022-11-04T22:31:16.990Z,20.00
2022-11-04T22:33:45.348Z,21.30
2022-11-04T22:36:13.302Z,22.40
2022-11-04T22:38:42.605Z,19.80
2022-11-04T22:41:16.363Z,22.80
2022-11-04T22:43:43.423Z,23.20
2022-11-04T22:46:18.506Z,21.70
2022-11-04T22:48:45.853Z,22.00
2022-11-04T22:51:13.416Z,20.30
2022-11-04T22:53:40.923Z,18.80
2022-11-04T22:56:11.842Z,23.20
2022-11-04T22:58:38.931Z,22.30
2022-11-04T23:01:13.084Z,21.40
2022-11-04T23:03:40.981Z,20.80
2022-11-04T23:06:09.636Z,21.60
2022-11-04T23:08:39.621Z,22.10
2022-11-04T23:14:34.562Z,24.00
2022-11-04T23:17:20.025Z,23.80
2022-11-04T23:19:49.784Z,23.60
2022-11-04T23:22:35.140Z,23.60
2022-11-04T23:25:11.003Z,22.70
2022-11-04T23:28:02.346Z,23.30
2022-11-04T23:30:36.421Z,25.90
2022-11-04T23:33:05.544Z,23.40
2022-11-04T23:35:52.807Z,23.70
2022-11-04T23:38:19.922Z,23.70
2022-11-04T23:41:08.248Z,24.70
2022-11-04T23:43:35.662Z,25.00
2022-11-04T23:46:21.470Z,24.30
2022-11-04T23:49:06.909Z,22.90
2022-11-04T23:51:52.371Z,23.20
2022-11-04T23:54:38.072Z,24.60
2022-11-04T23:57:31.959Z,23.90
